Time;durP1;ratioP1;P1;durP2;ratioP2;P2;SDS_P1;SDS_P2;PMS_P1;PMS_P2;Temp;Humidity;BMP_temperature;BMP_pressure;BME280_temperature;BME280_humidity;BME280_pressure;Samples;Min_cycle;Max_cycle;Signal;HPM_P1;HPM_P2
2023/04/17 00:00:06;;;;;;;;;;;;;;;6.37;100.00;96574.59;5103082;28;19956;-86
2023/04/17 00:02:38;;;;;;;;;;;;;;;6.38;100.00;96578.91;5107009;28;19963;-85
2023/04/17 00:05:05;;;;;;;;;;;;;;;6.33;100.00;96573.31;5118598;27;19951;-86
2023/04/17 00:07:33;;;;;;;;;;;;;;;6.32;100.00;96578.88;5100718;28;19967;-85
2023/04/17 00:10:00;;;;;;;;;;;;;;;6.31;100.00;96571.84;5125711;27;19950;-86
2023/04/17 00:12:26;;;;;;;;;;;;;;;6.34;100.00;96571.47;5101704;28;19954;-86
2023/04/17 00:14:54;;;;;;;;;;;;;;;6.37;100.00;96565.72;5098765;28;20065;-86
2023/04/17 00:17:21;;;;;;;;;;;;;;;6.34;100.00;96563.41;5102318;28;20047;-86
2023/04/17 00:19:49;;;;;;;;;;;;;;;6.34;100.00;96566.09;5111699;28;19976;-86
2023/04/17 00:22:15;;;;;;;;;;;;;;;6.33;100.00;96559.06;5105073;28;19949;-86
2023/04/17 00:24:42;;;;;;;;;;;;;;;6.35;100.00;96562.41;5101550;28;19953;-86
2023/04/17 00:27:09;;;;;;;;;;;;;;;6.38;100.00;96557.44;5097842;28;19960;-85
2023/04/17 00:29:36;;;;;;;;;;;;;;;6.41;100.00;96559.75;5105522;28;20009;-86
2023/04/17 00:32:05;;;;;;;;;;;;;;;6.42;100.00;96557.88;5100788;28;19954;-86
2023/04/17 00:34:31;;;;;;;;;;;;;;;6.40;100.00;96554.56;5112564;28;19950;-86
2023/04/17 00:36:59;;;;;;;;;;;;;;;6.35;100.00;96549.81;5100705;28;19956;-85
2023/04/17 00:39:25;;;;;;;;;;;;;;;6.33;100.00;96551.03;5100961;28;19947;-86
2023/04/17 00:41:52;;;;;;;;;;;;;;;6.30;100.00;96546.88;5102829;28;19997;-86
2023/04/17 00:44:19;;;;;;;;;;;;;;;6.30;100.00;96548.72;5097726;28;19952;-86
2023/04/17 00:46:46;;;;;;;;;;;;;;;6.29;100.00;96544.44;5110500;28;19952;-86
2023/04/17 00:49:14;;;;;;;;;;;;;;;6.29;100.00;96541.75;5108540;28;19946;-86
2023/04/17 00:51:42;;;;;;;;;;;;;;;6.32;100.00;96547.53;5107857;28;19954;-86
2023/04/17 00:54:10;;;;;;;;;;;;;;;6.33;100.00;96538.44;5103901;28;20002;-85
2023/04/17 00:56:37;;;;;;;;;;;;;;;6.33;100.00;96543.81;5104416;28;19960;-86
2023/04/17 00:59:06;;;;;;;;;;;;;;;6.34;100.00;96539.28;5096612;28;19974;-86
2023/04/17 01:01:33;;;;;;;;;;;;;;;6.34;100.00;96533.91;5105030;28;19948;-85
2023/04/17 01:04:00;;;;;;;;;;;;;;;6.34;100.00;96533.91;5110653;28;20037;-86
2023/04/17 01:06:28;;;;;;;;;;;;;;;6.34;100.00;96529.38;5107668;28;19948;-86
2023/04/17 01:08:55;;;;;;;;;;;;;;;6.34;100.00;96536.59;5104662;28;19963;-86
2023/04/17 01:11:22;;;;;;;;;;;;;;;6.32;100.00;96536.78;5102974;28;19954;-86
2023/04/17 01:13:49;;;;;;;;;;;;;;;6.30;100.00;96535.31;5109746;28;19960;-86
2023/04/17 01:16:18;;;;;;;;;;;;;;;6.28;100.00;96529.34;5103925;28;20042;-86
2023/04/17 01:18:47;;;;;;;;;;;;;;;6.31;100.00;96528.94;5109160;28;20059;-85
2023/04/17 01:21:13;;;;;;;;;;;;;;;6.31;100.00;96528.94;5109173;27;19973;-85
2023/04/17 01:23:44;;;;;;;;;;;;;;;6.31;100.00;96528.94;5107291;28;19997;-86
2023/04/17 01:26:15;;;;;;;;;;;;;;;6.27;100.00;96528.53;5111336;28;19972;-86
2023/04/17 01:28:42;;;;;;;;;;;;;;;6.24;100.00;96528.91;5110703;28;19967;-86
2023/04/17 01:31:14;;;;;;;;;;;;;;;6.26;100.00;96523.34;5109467;27;19973;-86
2023/04/17 01:33:40;;;;;;;;;;;;;;;6.28;100.00;96532.03;5112905;28;19958;-86
2023/04/17 01:36:07;;;;;;;;;;;;;;;6.29;100.00;96534.53;5104400;28;19966;-86
2023/04/17 01:38:37;;;;;;;;;;;;;;;6.30;100.00;96536.16;5111172;28;20022;-86
2023/04/17 01:41:08;;;;;;;;;;;;;;;6.31;100.00;96536.97;5126496;27;19970;-86
2023/04/17 01:43:38;;;;;;;;;;;;;;;6.33;100.00;96526.91;5108114;28;19999;-86
2023/04/17 01:46:06;;;;;;;;;;;;;;;6.33;100.00;96532.25;5100690;28;19974;-87
2023/04/17 01:48:33;;;;;;;;;;;;;;;6.33;100.00;96529.56;5108460;28;19968;-85
2023/04/17 01:51:00;;;;;;;;;;;;;;;6.33;100.00;96532.25;5108439;28;20006;-85
2023/04/17 01:53:27;;;;;;;;;;;;;;;6.33;100.00;96525.03;5108853;28;19958;-85
2023/04/17 01:55:53;;;;;;;;;;;;;;;6.29;100.00;96520.28;5109189;28;20274;-85
2023/04/17 01:58:20;;;;;;;;;;;;;;;6.25;100.00;96519.84;5107406;28;19950;-85
2023/04/17 02:00:52;;;;;;;;;;;;;;;6.23;100.00;96518.38;5107878;28;19964;-85
2023/04/17 02:03:19;;;;;;;;;;;;;;;6.24;100.00;96520.03;5117055;27;19955;-85
2023/04/17 02:05:46;;;;;;;;;;;;;;;6.24;100.00;96517.34;5108150;28;19950;-85
2023/04/17 02:08:13;;;;;;;;;;;;;;;6.22;100.00;96514.03;5107661;28;19972;-86
2023/04/17 02:10:40;;;;;;;;;;;;;;;6.18;100.00;96508.28;5105027;28;19952;-85
2023/04/17 02:13:07;;;;;;;;;;;;;;;6.17;100.00;96508.47;5104511;28;19984;-85
2023/04/17 02:15:34;;;;;;;;;;;;;;;6.18;100.00;96507.44;5099937;28;20054;-86
2023/04/17 02:18:04;;;;;;;;;;;;;;;6.16;100.00;96504.94;5109378;28;19953;-86
2023/04/17 02:20:31;;;;;;;;;;;;;;;6.14;100.00;96508.84;5109163;28;19941;-85
2023/04/17 02:22:59;;;;;;;;;;;;;;;6.14;100.00;96500.81;5109771;28;19950;-86
2023/04/17 02:25:26;;;;;;;;;;;;;;;6.13;100.00;96504.50;5104367;28;19954;-86
2023/04/17 02:27:53;;;;;;;;;;;;;;;6.08;100.00;96503.25;5105169;28;19986;-86
2023/04/17 02:30:20;;;;;;;;;;;;;;;6.06;100.00;96499.94;5108540;28;19959;-85
2023/04/17 02:32:47;;;;;;;;;;;;;;;6.06;100.00;96510.66;5111162;28;20049;-86
2023/04/17 02:35:16;;;;;;;;;;;;;;;6.08;100.00;96508.63;5099642;28;19964;-85
2023/04/17 02:37:42;;;;;;;;;;;;;;;6.07;100.00;96511.50;5110994;28;19948;-85
2023/04/17 02:40:09;;;;;;;;;;;;;;;6.05;100.00;96513.53;5104488;27;19955;-86
2023/04/17 02:42:37;;;;;;;;;;;;;;;6.03;100.00;96505.72;5107880;28;20047;-85
2023/04/17 02:45:05;;;;;;;;;;;;;;;6.01;100.00;96507.78;5105240;27;19953;-86
2023/04/17 02:47:32;;;;;;;;;;;;;;;6.01;100.00;96504.25;5106332;28;19950;-86
2023/04/17 02:50:00;;;;;;;;;;;;;;;6.01;100.00;96507.78;5109759;28;19981;-85
2023/04/17 02:52:28;;;;;;;;;;;;;;;6.01;100.00;96513.13;5109344;28;19960;-86
2023/04/17 02:54:55;;;;;;;;;;;;;;;6.04;100.00;96506.53;5108013;28;19963;-85
2023/04/17 02:57:23;;;;;;;;;;;;;;;6.05;100.00;96509.00;5106630;28;19951;-85
2023/04/17 02:59:49;;;;;;;;;;;;;;;6.06;100.00;96504.47;5108622;28;19970;-86
2023/04/17 03:02:20;;;;;;;;;;;;;;;6.07;100.00;96506.97;5102244;28;19957;-85
2023/04/17 03:04:49;;;;;;;;;;;;;;;6.12;100.00;96508.25;5111871;28;19956;-86
2023/04/17 03:07:17;;;;;;;;;;;;;;;6.13;100.00;96496.47;5099768;28;19994;-85
2023/04/17 03:09:46;;;;;;;;;;;;;;;6.14;100.00;96495.44;5107242;27;19967;-86
2023/04/17 03:12:14;;;;;;;;;;;;;;;6.11;100.00;96495.84;5105616;28;20008;-86
2023/04/17 03:14:41;;;;;;;;;;;;;;;6.07;100.00;96490.88;5109210;28;19980;-86
2023/04/17 03:17:08;;;;;;;;;;;;;;;6.07;100.00;96490.88;5110008;28;19948;-85
2023/04/17 03:19:35;;;;;;;;;;;;;;;6.07;100.00;96496.25;5102935;28;19984;-86
2023/04/17 03:22:02;;;;;;;;;;;;;;;6.05;100.00;96492.09;5102983;28;20051;-86
2023/04/17 03:24:30;;;;;;;;;;;;;;;6.06;100.00;96494.59;5104816;28;19949;-85
2023/04/17 03:27:01;;;;;;;;;;;;;;;6.07;100.00;96498.09;5102506;28;19958;-86
2023/04/17 03:29:34;;;;;;;;;;;;;;;6.07;100.00;96501.59;5105398;27;19999;-86
2023/04/17 03:32:01;;;;;;;;;;;;;;;6.10;100.00;96494.19;5102388;27;19945;-86
2023/04/17 03:34:28;;;;;;;;;;;;;;;6.08;100.00;96495.22;5108314;28;19992;-86
2023/04/17 03:36:55;;;;;;;;;;;;;;;6.04;100.00;96498.47;5063099;28;19978;-87
2023/04/17 03:39:21;;;;;;;;;;;;;;;5.99;100.00;96498.25;5066774;28;19956;-85
2023/04/17 03:41:48;;;;;;;;;;;;;;;5.97;100.00;96509.19;5063378;28;19939;-86
2023/04/17 03:44:18;;;;;;;;;;;;;;;5.93;100.00;96507.09;5065226;28;19958;-85
2023/04/17 03:46:45;;;;;;;;;;;;;;;5.86;100.00;96507.03;5062085;28;19973;-86
2023/04/17 03:49:12;;;;;;;;;;;;;;;5.82;100.00;96508.44;5065487;28;19994;-85
2023/04/17 03:51:41;;;;;;;;;;;;;;;5.83;100.00;96504.75;5065046;28;19961;-85
2023/04/17 03:54:13;;;;;;;;;;;;;;;5.88;100.00;96513.03;5061967;28;19952;-86
2023/04/17 03:56:43;;;;;;;;;;;;;;;5.90;100.00;96504.81;5059564;28;19952;-86
2023/04/17 03:59:11;;;;;;;;;;;;;;;5.87;100.00;96502.50;5060777;28;19955;-86
2023/04/17 04:01:43;;;;;;;;;;;;;;;5.80;100.00;96505.13;5068115;28;19952;-85
2023/04/17 04:04:14;;;;;;;;;;;;;;;5.74;100.00;96503.25;5067832;28;20003;-85
2023/04/17 04:06:41;;;;;;;;;;;;;;;5.73;100.00;96504.25;5070152;28;19960;-85
2023/04/17 04:09:10;;;;;;;;;;;;;;;5.75;100.00;96502.22;5066361;28;19968;-85
2023/04/17 04:11:37;;;;;;;;;;;;;;;5.80;100.00;96504.28;5070039;28;20046;-85
2023/04/17 04:14:04;;;;;;;;;;;;;;;5.83;100.00;96506.59;5070420;28;19971;-85
2023/04/17 04:16:31;;;;;;;;;;;;;;;5.84;100.00;96511.75;5068731;28;19951;-85
2023/04/17 04:19:08;;;;;;;;;;;;;;;5.84;100.00;96509.06;5079302;28;19953;-85
2023/04/17 04:21:35;;;;;;;;;;;;;;;5.79;100.00;96506.16;5085038;28;19959;-85
2023/04/17 04:24:05;;;;;;;;;;;;;;;5.82;100.00;96505.75;5063676;28;20029;-86
2023/04/17 04:26:32;;;;;;;;;;;;;;;5.82;100.00;96507.59;5068249;28;19980;-86
2023/04/17 04:29:00;;;;;;;;;;;;;;;5.81;100.00;96505.94;5060624;28;19970;-86
2023/04/17 04:31:49;;;;;;;;;;;;;;;5.79;100.00;96508.00;5070213;28;19939;-87
2023/04/17 04:34:20;;;;;;;;;;;;;;;5.80;100.00;96509.66;5069148;28;20050;-86
2023/04/17 04:36:49;;;;;;;;;;;;;;;5.83;100.00;96512.78;5105953;28;19958;-86
2023/04/17 04:39:28;;;;;;;;;;;;;;;5.88;100.00;96512.22;5123369;27;20392;-86
2023/04/17 04:41:55;;;;;;;;;;;;;;;5.90;100.00;96510.16;5111177;28;19945;-86
2023/04/17 04:44:26;;;;;;;2.17;2.00;;;;;;;5.88;100.00;96507.69;5112068;28;20408;-85
2023/04/17 04:46:57;;;;;;;;;;;;;;;5.92;100.00;96517.00;5109443;28;20201;-85
2023/04/17 04:49:25;;;;;;;;;;;;;;;5.95;100.00;96513.94;5106402;28;19919;-85
2023/04/17 04:51:51;;;;;;;;;;;;;;;5.95;100.00;96513.94;5118515;27;19920;-86
2023/04/17 04:54:20;;;;;;;;;;;;;;;5.93;100.00;96515.97;5107026;28;19923;-86
2023/04/17 04:56:51;;;;;;;;;;;;;;;5.93;100.00;96520.50;5100515;28;19988;-85
2023/04/17 04:59:18;;;;;;;;;;;;;;;5.91;100.00;96523.38;5123764;27;19928;-86
2023/04/17 05:01:53;;;;;;;;;;;;;;;5.90;100.00;96516.34;5109639;27;19920;-85
2023/04/17 05:04:22;;;;;;;;;;;;;;;5.92;100.00;96525.03;5112222;28;19923;-85
2023/04/17 05:06:55;;;;;;;;;;;;;;;5.97;100.00;96522.56;5105044;28;19931;-86
2023/04/17 05:09:22;;;;;;;;;;;;;;;5.97;100.00;96533.28;5104731;28;19924;-85
2023/04/17 05:11:53;;;;;;;;;;;;;;;5.98;100.00;96536.81;5111335;28;19929;-85
2023/04/17 05:14:21;;;;;;;;;;;;;;;5.93;100.00;96536.59;5113663;28;19926;-85
2023/04/17 05:16:48;;;;;;;;;;;;;;;5.87;100.00;96543.50;5111434;28;19969;-86
2023/04/17 05:19:15;;;;;;;;;;;;;;;5.80;100.00;96548.00;5100419;28;19920;-85
2023/04/17 05:21:49;;;;;;;;;;;;;;;5.72;100.00;96535.56;5106351;28;19943;-86
2023/04/17 05:24:19;;;;;;;;;;;;;;;5.72;100.00;96537.44;5121144;27;19931;-87
2023/04/17 05:26:46;;;;;;;;;;;;;;;5.70;100.00;96536.78;5104572;28;20065;-86
2023/04/17 05:29:13;;;;;;;95.83;45.83;;;;;;;5.72;100.00;96532.06;5109862;28;20459;-86
2023/04/17 05:31:41;;;;;;;41.20;23.97;;;;;;;5.73;100.00;96525.69;5110257;28;20463;-86
2023/04/17 05:34:19;;;;;;;;;;;;;;;5.88;100.00;96539.84;5107524;28;20545;-86
2023/04/17 05:36:46;;;;;;;;;;;;;;;5.86;100.00;96536.50;5110383;28;20420;-85
2023/04/17 05:39:13;;;;;;;;;;;;;;;5.80;100.00;96542.63;5108668;28;19923;-85
2023/04/17 05:41:41;;;;;;;;;;;;;;;5.78;100.00;96543.88;5105703;28;19931;-85
2023/04/17 05:44:08;;;;;;;;;;;;;;;5.79;100.00;96554.38;5112589;28;19924;-86
2023/04/17 05:46:35;;;;;;;;;;;;;;;5.90;100.00;96553.03;5110709;28;19928;-85
2023/04/17 05:49:05;;;;;;;;;;;;;;;5.92;100.00;96551.00;5101481;28;19924;-86
2023/04/17 05:51:31;;;;;;;;;;;;;;;5.93;100.00;96555.34;5112134;28;19924;-85
2023/04/17 05:53:58;;;;;;;;;;;;;;;5.96;100.00;96554.94;5095850;28;19928;-85
2023/04/17 05:56:25;;;;;;;;;;;;;;;5.98;100.00;96542.16;5112651;28;19928;-85
2023/04/17 05:58:54;;;;;;;;;;;;;;;5.98;100.00;96551.03;5101420;28;19956;-85
2023/04/17 06:01:21;;;;;;;;;;;;;;;6.02;100.00;96546.13;5104260;28;20048;-85
2023/04/17 06:03:51;;;;;;;;;;;;;;;6.03;100.00;96553.97;5112063;28;19960;-85
2023/04/17 06:06:22;;;;;;;;;;;;;;;5.94;100.00;96560.50;5108151;27;19979;-85
2023/04/17 06:08:51;;;;;;;;;;;;;;;5.93;100.00;96556.16;5104264;28;20037;-85
2023/04/17 06:11:17;;;;;;;;;;;;;;;5.90;100.00;96556.56;5109706;28;19938;-86
2023/04/17 06:13:46;;;;;;;;;;;;;;;5.88;100.00;96550.56;5101271;28;20094;-85
2023/04/17 06:16:15;;;;;;;;;;;;;;;5.91;100.00;96550.16;5105045;28;19973;-86
2023/04/17 06:18:43;;;;;;;;;;;;;;;5.98;100.00;96561.75;5106755;27;20032;-85
2023/04/17 06:21:10;;;;;;;;;;;;;;;6.06;100.00;96558.09;5100190;28;19948;-85
2023/04/17 06:23:37;;;;;;;;;;;;;;;6.05;100.00;96557.25;5092155;27;19961;-85
2023/04/17 06:26:03;;;;;;;;;;;;;;;5.95;100.00;96556.81;5099207;27;20041;-85
2023/04/17 06:28:31;;;;;;;;;;;;;;;5.96;100.00;96558.44;5109039;28;19981;-86
2023/04/17 06:30:58;;;;;;;;;;;;;;;6.00;100.00;96564.25;5108627;28;19924;-85
2023/04/17 06:33:27;;;;;;;;;;;;;;;6.10;100.00;96562.06;5106634;28;19969;-86
2023/04/17 06:35:55;;;;;;;;;;;;;;;6.19;100.00;96562.72;5104715;27;19938;-85
2023/04/17 06:38:33;;;;;;;;;;;;;;;6.26;100.00;96559.06;5110928;27;20075;-85
2023/04/17 06:41:01;;;;;;;;;;;;;;;6.32;100.00;96568.16;5102571;28;19955;-86
2023/04/17 06:43:27;;;;;;;;;;;;;;;6.38;100.00;96567.38;5109776;28;20033;-85
2023/04/17 06:45:54;;;;;;;;;;;;;;;6.35;100.00;96563.22;5100029;28;19954;-85
2023/04/17 06:48:21;;;;;;;;;;;;;;;6.37;100.00;96571.06;5103150;28;19997;-86
2023/04/17 06:50:49;;;;;;;;;;;;;;;6.46;100.00;96565.31;5106839;28;19969;-86
2023/04/17 06:53:16;;;;;;;;;;;;;;;6.54;100.00;96567.03;5119776;27;19951;-86
2023/04/17 06:55:43;;;;;;;;;;;;;;;6.66;100.00;96565.41;5107281;28;19950;-86
2023/04/17 06:58:10;;;;;;;;;;;;;;;6.69;100.00;96559.66;5104061;27;20014;-86
2023/04/17 07:00:37;;;;;;;;;;;;;;;6.75;100.00;96556.16;5101398;28;19947;-86
2023/04/17 07:03:04;;;;;;;;;;;;;;;6.84;100.00;96557.66;5103133;28;19932;-85
2023/04/17 07:05:32;;;;;;;;;;;;;;;6.93;100.00;96549.41;5108048;28;20008;-85
2023/04/17 07:08:00;;;;;;;;;;;;;;;7.07;100.00;96553.78;5103479;28;19948;-86
2023/04/17 07:10:27;;;;;;;;;;;;;;;7.07;100.00;96549.22;5115862;27;19963;-85
2023/04/17 07:12:54;;;;;;;;;;;;;;;7.13;100.00;96547.59;5100553;28;19932;-86
2023/04/17 07:15:21;;;;;;;;;;;;;;;7.03;100.00;96544.47;5102370;28;19976;-85
2023/04/17 07:17:48;;;;;;;;;;;;;;;7.12;100.00;96544.09;5109487;28;19949;-85
2023/04/17 07:20:15;;;;;;;;;;;;;;;7.09;100.00;96543.66;5105998;28;19930;-86
2023/04/17 07:22:42;;;;;;;;;;;;;;;7.14;100.00;96542.03;5109653;28;19990;-85
2023/04/17 07:25:10;;;;;;;;;;;;;;;7.20;100.00;96540.38;5109558;28;19924;-86
2023/04/17 07:27:37;;;;;;;;;;;;;;;7.31;100.00;96531.72;5106471;28;19989;-85
2023/04/17 07:30:06;;;;;;;;;;;;;;;7.39;100.00;96522.63;5096408;28;19924;-85
2023/04/17 07:32:33;;;;;;;;;;;;;;;7.45;100.00;96527.19;5111225;28;20052;-85
2023/04/17 07:34:59;;;;;;;;;;;;;;;7.51;100.00;96524.50;5094825;28;19924;-86
2023/04/17 07:37:26;;;;;;;;;;;;;;;7.51;100.00;96534.41;5104644;28;19993;-86
2023/04/17 07:39:53;;;;;;;;;;;;;;;7.56;100.00;96523.88;5107496;28;19963;-86
2023/04/17 07:42:21;;;;;;;;;;;;;;;7.59;100.00;96531.50;5110307;28;19930;-86
2023/04/17 07:44:48;;;;;;;;;;;;;;;7.58;100.00;96528.00;5093488;28;20089;-86
2023/04/17 07:47:14;;;;;;;;;;;;;;;7.64;100.00;96531.72;5103101;28;20032;-86
2023/04/17 07:49:45;;;;;;;;;;;;;;;7.73;100.00;96529.66;5101387;28;19928;-86
2023/04/17 07:52:13;;;;;;;;;;;;;;;7.79;100.00;96534.19;5097098;28;19928;-85
2023/04/17 07:54:40;;;;;;;;;;;;;;;7.88;100.00;96533.78;5106816;28;19935;-86
2023/04/17 07:57:07;;;;;;;;;;;;;;;7.92;100.00;96526.09;5106596;28;19939;-85
2023/04/17 07:59:36;;;;;;;;;;;;;;;7.87;100.00;96531.28;5118952;27;20166;-86
2023/04/17 08:02:03;;;;;;;;;;;;;;;7.84;100.00;96531.69;5111334;28;19965;-85
2023/04/17 08:04:30;;;;;;;;;;;;;;;7.88;100.00;96528.41;5104895;28;20051;-85
2023/04/17 08:06:57;;;;;;;;;;;;;;;7.90;100.00;96526.34;5098497;28;19981;-86
2023/04/17 08:09:23;;;;;;;;;;;;;;;7.93;100.00;96525.91;5108753;28;19965;-86
2023/04/17 08:11:50;;;;;;;;;;;;;;;7.97;100.00;96520.94;5109230;28;19954;-86
2023/04/17 08:14:19;;;;;;;;;;;;;;;8.09;100.00;96515.72;5105887;28;19967;-86
2023/04/17 08:16:49;;;;;;;;;;;;;;;8.11;100.00;96522.56;5104522;28;20003;-85
2023/04/17 08:19:16;;;;;;;;;;;;;;;8.16;100.00;96517.38;5098849;28;19947;-86
2023/04/17 08:21:43;;;;;;;;;;;;;;;8.24;100.00;96517.16;5104869;28;20041;-85
2023/04/17 08:24:10;;;;;;;;;;;;;;;8.35;100.00;96518.38;5094595;28;19953;-85
2023/04/17 08:26:36;;;;;;;;;;;;;;;8.59;100.00;96514.16;5099325;28;19953;-86
2023/04/17 08:29:04;;;;;;;;;;;;;;;8.93;100.00;96500.28;5100685;28;19998;-86
2023/04/17 08:31:31;;;;;;;;;;;;;;;9.38;100.00;96502.91;5102371;28;19927;-85
2023/04/17 08:34:01;;;;;;;;;;;;;;;9.67;100.00;96513.06;5111162;28;19948;-86
2023/04/17 08:36:28;;;;;;;;;;;;;;;10.02;100.00;96504.44;5095205;28;19961;-86
2023/04/17 08:38:55;;;;;;;;;;;;;;;10.09;100.00;96505.19;5109811;28;19949;-85
2023/04/17 08:41:24;;;;;;;;;;;;;;;10.13;100.00;96506.38;5104133;28;19947;-85
2023/04/17 08:43:52;;;;;;;;;;;;;;;9.96;100.00;96516.09;5098941;28;20019;-85
2023/04/17 08:46:21;;;;;;;;;;;;;;;9.59;100.00;96518.72;5101319;28;19948;-85
2023/04/17 08:48:49;;;;;;;;;;;;;;;9.47;100.00;96512.38;5099755;28;19952;-86
2023/04/17 08:51:17;;;;;;;;;;;;;;;9.28;100.00;96516.03;5098679;28;19966;-85
2023/04/17 08:53:44;;;;;;;;;;;;;;;9.26;100.00;96515.44;5101597;28;19951;-86
2023/04/17 08:56:11;;;;;;;;;;;;;;;9.25;100.00;96509.22;5094267;28;19996;-86
2023/04/17 08:58:37;;;;;;;;;;;;;;;9.17;100.00;96511.38;5096732;28;19957;-85
2023/04/17 09:01:09;;;;;;;;;;;;;;;9.13;100.00;96505.56;5119290;28;20002;-85
2023/04/17 09:03:39;;;;;;;;;;;;;;;9.14;100.00;96506.41;5105855;28;19963;-86
2023/04/17 09:06:08;;;;;;;;;;;;;;;9.32;100.00;96501.94;5104037;28;19950;-85
2023/04/17 09:08:36;;;;;;;;;;;;;;;9.46;100.00;96510.72;5104800;28;19952;-84
2023/04/17 09:11:02;;;;;;;;;;;;;;;9.40;100.00;96511.59;5105635;28;20218;-84
2023/04/17 09:13:29;;;;;;;;;;;;;;;9.40;100.00;96508.91;5100878;28;19966;-84
2023/04/17 09:16:06;;;;;;;;;;;;;;;9.52;100.00;96509.03;5104570;28;20045;-84
2023/04/17 09:18:33;;;;;;;;;;;;;;;9.60;100.00;96501.50;5098382;28;19963;-84
2023/04/17 09:21:01;;;;;;;;;;;;;;;9.61;100.00;96502.34;5106802;28;19949;-83
2023/04/17 09:23:29;;;;;;;;;;;;;;;9.69;100.00;96507.44;5106002;28;19957;-84
2023/04/17 09:26:10;;;;;;;;;;;;;;;9.84;100.00;96497.13;5102873;28;19969;-83
2023/04/17 09:28:38;;;;;;;;;;;;;;;9.90;100.00;96490.03;5111859;27;19985;-83
2023/04/17 09:31:06;;;;;;;;;;;;;;;9.93;100.00;96490.41;5108024;28;20062;-83
2023/04/17 09:33:33;;;;;;;;;;;;;;;10.13;100.00;96484.78;5106962;28;19961;-82
2023/04/17 09:36:19;;;;;;;;;;;;;;;10.41;100.00;96482.44;5116913;27;20071;-83
2023/04/17 09:38:46;;;;;;;;;;;;;;;10.96;100.00;96471.56;5109837;28;19949;-82
2023/04/17 09:41:24;;;;;;;;;;;;;;;11.35;100.00;96479.06;5108199;28;19954;-82
2023/04/17 09:43:53;;;;;;;;;;;;;;;11.57;100.00;96471.22;5108124;28;19959;-83
2023/04/17 09:46:39;;;;;;;;;;;;;;;11.70;100.00;96472.88;5110376;28;19991;-83
2023/04/17 09:49:08;;;;;;;;;;;;;;;11.58;100.00;96466.63;5107353;28;19947;-83
2023/04/17 09:51:35;;;;;;;;;;;;;;;11.62;100.00;96467.81;5112325;27;20008;-83
2023/04/17 09:54:05;;;;;;;;;;;;;;;11.73;100.00;96462.44;5106901;27;19946;-83
2023/04/17 09:56:36;;;;;;;;;;;;;;;11.87;100.00;96460.34;5106073;28;19957;-83
2023/04/17 09:59:04;;;;;;;;;;;;;;;11.91;100.00;96460.69;5104782;28;19982;-83
2023/04/17 10:01:32;;;;;;;;;;;;;;;11.93;100.00;96453.97;5108895;28;19948;-83
2023/04/17 10:04:00;;;;;;;;;;;;;;;12.10;100.00;96454.91;5110039;28;19966;-83
2023/04/17 10:06:27;;;;;;;;;;;;;;;12.30;100.00;96451.00;5100792;28;19976;-83
2023/04/17 10:08:54;;;;;;;;;;;;;;;12.52;100.00;96446.56;5102773;28;19955;-83
2023/04/17 10:11:22;;;;;;;;;;;;;;;12.71;100.00;96441.81;5103350;27;19967;-84
2023/04/17 10:13:57;;;;;;;;;;;;;;;12.93;100.00;96440.06;5104573;27;19962;-85
2023/04/17 10:16:34;;;;;;;;;;;;;;;13.17;98.92;96438.09;5106804;28;19946;-82
2023/04/17 10:19:16;;;;;;;;;;;;;;;13.33;97.01;96431.06;5095654;28;19954;-85
2023/04/17 10:21:44;;;;;;;;;;;;;;;13.37;100.00;96434.91;5103287;28;19945;-86
2023/04/17 10:24:24;;;;;;;;;;;;;;;13.70;98.37;96429.47;5105796;28;19944;-85
2023/04/17 10:26:52;;;;;;;;;;;;;;;13.97;98.80;96419.56;5097722;28;19956;-86
2023/04/17 10:29:41;;;;;;;;;;;;;;;14.22;96.01;96421.81;5105817;27;20031;-85
2023/04/17 10:32:15;;;;;;;;;;;;;;;14.15;93.70;96418.47;5103785;28;19969;-85
2023/04/17 10:34:42;;;;;;;;;;;;;;;14.17;94.81;96415.50;5098915;27;19955;-86
2023/04/17 10:37:14;;;;;;;;;;;;;;;13.97;97.42;96410.59;5103104;28;19964;-84
2023/04/17 10:39:51;;;;;;;;;;;;;;;14.16;96.98;96417.41;5101409;28;19950;-86
2023/04/17 10:42:20;;;;;;;;;;;;;;;14.05;97.79;96404.75;5100884;28;20001;-86
2023/04/17 10:44:48;;;;;;;;;;;;;;;14.17;99.35;96407.38;5098709;27;20000;-85
2023/04/17 10:47:15;;;;;;;;;;;;;;;14.01;96.15;96407.16;5106501;28;19954;-85
2023/04/17 10:49:49;;;;;;;;;;;;;;;13.74;99.86;96402.69;5099219;28;20022;-86
2023/04/17 10:52:34;;;;;;;;;;;;;;;13.36;98.92;96401.53;5107396;28;19959;-86
2023/04/17 10:55:05;;;;;;;;;;;;;;;13.24;100.00;96403.53;5105920;28;19961;-86
2023/04/17 10:57:50;;;;;;;;;;;;;;;12.96;100.00;96398.94;5107276;27;19949;-86
2023/04/17 11:00:20;;;;;;;;;;;;;;;12.84;100.00;96398.97;5107622;28;19954;-86
2023/04/17 11:02:49;;;;;;;;;;;;;;;12.88;100.00;96393.91;5102597;28;19953;-86
2023/04/17 11:05:16;;;;;;;;;;;;;;;13.02;100.00;96389.81;5102420;28;20000;-85
2023/04/17 11:07:49;;;;;;;;;;;;;;;13.38;100.00;96391.28;5103596;28;19954;-86
2023/04/17 11:10:16;;;;;;;;;;;;;;;13.68;100.00;96390.13;5105118;27;19953;-86
2023/04/17 11:12:45;;;;;;;;;;;;;;;13.88;94.98;96374.94;5105925;28;20053;-86
2023/04/17 11:15:12;;;;;;;;;;;;;;;14.09;98.00;96381.47;5107080;28;19963;-86
2023/04/17 11:17:41;;;;;;;;;;;;;;;14.07;92.50;96375.47;5113395;27;19950;-86
2023/04/17 11:20:10;;;;;;;;;;;;;;;14.08;93.55;96377.09;5095256;28;19957;-86
2023/04/17 11:22:36;;;;;;;;;;;;;;;14.34;91.99;96373.63;5105689;28;19959;-86
2023/04/17 11:25:03;;;;;;;;;;;;;;;14.48;91.96;96367.84;5102321;27;19948;-86
2023/04/17 11:27:30;;;;;;;;;;;;;;;14.63;94.66;96376.19;5100855;28;19947;-85
2023/04/17 11:29:57;;;;;;;;;;;;;;;14.71;96.05;96368.41;5104426;28;20058;-86
2023/04/17 11:32:24;;;;;;;;;;;;;;;14.79;94.74;96361.69;5096961;28;19962;-85
2023/04/17 11:34:55;;;;;;;;;;;;;;;15.03;93.76;96371.16;5101917;28;19973;-86
2023/04/17 11:37:22;;;;;;;;;;;;;;;15.30;88.96;96373.03;5097893;27;19991;-86
2023/04/17 11:39:49;;;;;;;;;;;;;;;15.08;87.69;96363.03;5104597;28;20068;-85
2023/04/17 11:42:25;;;;;;;;;;;;;;;15.10;89.16;96369.03;5101316;28;19961;-89
2023/04/17 11:44:52;;;;;;;;;;;;;;;15.27;89.86;96365.38;5109542;27;19947;-85
2023/04/17 11:47:19;;;;;;;;;;;;;;;15.32;87.07;96362.69;5102887;27;19957;-85
2023/04/17 11:49:46;;;;;;;;;;;;;;;15.42;88.66;96358.16;5106863;27;19993;-85
2023/04/17 11:52:15;;;;;;;;;;;;;;;15.48;85.57;96367.19;5102978;28;19959;-85
2023/04/17 11:54:42;;;;;;;;;;;;;;;15.32;85.18;96363.50;5105061;28;19992;-86
2023/04/17 11:57:11;;;;;;;;;;;;;;;15.03;85.69;96352.13;5101148;27;19955;-86
2023/04/17 11:59:40;;;;;;;;;;;;;;;14.62;87.51;96355.53;5121002;27;19980;-85
2023/04/17 12:02:09;;;;;;;;;;;;;;;14.30;90.13;96358.09;5106459;27;19946;-86
2023/04/17 12:04:38;;;;;;;;;;;;;;;14.09;90.26;96358.94;5108380;28;20050;-85
2023/04/17 12:07:06;;;;;;;;;;;;;;;14.00;92.38;96353.09;5114169;27;19949;-88
2023/04/17 12:09:36;;;;;;;;;;;;;;;14.52;93.32;96339.09;5096867;28;19955;-86
2023/04/17 12:12:05;;;;;;;;;;;;;;;14.73;89.01;96351.81;5104830;28;19986;-86
2023/04/17 12:14:33;;;;;;;;;;;;;;;14.86;86.16;96345.97;5100959;27;19965;-87
2023/04/17 12:17:00;;;;;;;;;;;;;;;15.03;85.97;96354.84;5107089;28;19957;-87
2023/04/17 12:19:30;;;;;;;;;;;;;;;15.20;87.07;96349.28;5108594;28;19959;-87
2023/04/17 12:21:59;;;;;;;;;;;;;;;14.76;84.44;96345.88;5101854;28;19988;-86
2023/04/17 12:24:27;;;;;;;;;;;;;;;14.28;87.42;96343.97;5092371;28;20048;-87
2023/04/17 12:26:57;;;;;;;;;;;;;;;13.97;91.11;96340.03;5109184;28;20195;-86
2023/04/17 12:29:27;;;;;;;;;;;;;;;13.87;90.65;96346.13;5103253;28;19951;-87
2023/04/17 12:31:54;;;;;;;;;;;;;;;13.69;91.26;96349.16;5107642;28;20054;-86
2023/04/17 12:34:21;;;;;;;;;;;;;;;13.68;92.18;96352.13;5101778;28;19944;-86
2023/04/17 12:36:49;;;;;;;;;;;;;;;13.65;90.70;96353.44;5098813;28;19961;-86
2023/04/17 12:39:16;;;;;;;;;;;;;;;13.66;92.62;96349.66;5094633;28;20047;-86
2023/04/17 12:41:42;;;;;;;;;;;;;;;13.72;89.22;96336.97;5108520;28;20033;-86
2023/04/17 12:44:11;;;;;;;;;;;;;;;13.69;92.69;96334.78;5103810;28;19963;-87
2023/04/17 12:46:37;;;;;;;;;;;;;;;13.85;93.91;96331.19;5102364;28;20033;-86
2023/04/17 12:49:04;;;;;;;;;;;;;;;13.84;89.61;96338.53;5100121;28;20142;-86
2023/04/17 12:51:36;;;;;;;;;;;;;;;13.70;87.89;96339.09;5098502;28;19968;-86